Time;durP1;ratioP1;P1;durP2;ratioP2;P2;SDS_P1;SDS_P2;PMS_P1;PMS_P2;Temp;Humidity;BMP_temperature;BMP_pressure;BME280_temperature;BME280_humidity;BME280_pressure;Samples;Min_cycle;Max_cycle;Signal;HPM_P1;HPM_P2
2023/04/24 00:00:50;;;;;;;1.97;1.63;;;13.00;91.70;;;;;;5096454;28;20867;-55
2023/04/24 00:03:20;;;;;;;1.43;1.30;;;12.90;91.20;;;;;;5095551;28;20467;-55
2023/04/24 00:05:47;;;;;;;1.53;1.40;;;12.90;91.40;;;;;;5096474;28;20909;-55
2023/04/24 00:08:14;;;;;;;2.03;1.47;;;12.80;91.10;;;;;;5096230;28;20509;-55
2023/04/24 00:10:41;;;;;;;1.60;1.50;;;12.70;91.20;;;;;;5096140;28;20906;-55
2023/04/24 00:13:08;;;;;;;5.07;2.10;;;12.70;91.50;;;;;;5095991;28;20466;-55
2023/04/24 00:15:35;;;;;;;1.80;1.70;;;12.60;91.70;;;;;;5095982;28;20448;-55
2023/04/24 00:18:02;;;;;;;1.60;1.43;;;12.60;91.80;;;;;;5095599;28;20867;-55
2023/04/24 00:20:32;;;;;;;2.20;1.50;;;12.60;91.90;;;;;;5096275;28;20448;-54
2023/04/24 00:22:59;;;;;;;2.37;2.17;;;12.60;91.90;;;;;;5095771;28;20506;-55
2023/04/24 00:25:25;;;;;;;1.67;1.57;;;12.60;92.00;;;;;;5095677;28;20570;-55
2023/04/24 00:27:52;;;;;;;2.03;1.83;;;12.60;91.40;;;;;;5095511;28;20963;-55
2023/04/24 00:30:19;;;;;;;2.63;1.80;;;12.50;91.20;;;;;;5095541;28;20444;-55
2023/04/24 00:32:45;;;;;;;5.10;2.30;;;12.50;91.00;;;;;;5095653;28;20451;-55
2023/04/24 00:35:12;;;;;;;2.20;2.00;;;12.50;90.80;;;;;;5095364;28;20448;-55
2023/04/24 00:37:40;;;;;;;2.83;2.40;;;12.40;91.00;;;;;;5095654;28;20440;-55
2023/04/24 00:40:08;;;;;;;6.10;2.53;;;12.40;91.10;;;;;;5095582;28;20435;-55
2023/04/24 00:42:35;;;;;;;2.47;1.90;;;12.40;91.20;;;;;;5095283;28;20448;-55
2023/04/24 00:45:03;;;;;;;2.33;2.10;;;12.50;91.20;;;;;;5095312;28;20487;-55
2023/04/24 00:47:30;;;;;;;4.03;2.53;;;12.50;90.90;;;;;;5095069;28;20447;-55
2023/04/24 00:49:57;;;;;;;4.67;2.57;;;12.40;91.00;;;;;;5095427;28;20448;-55
2023/04/24 00:52:24;;;;;;;3.93;3.17;;;12.40;91.10;;;;;;5095329;28;20444;-55
2023/04/24 00:54:52;;;;;;;6.23;2.90;;;12.40;91.10;;;;;;5095163;28;20503;-55
2023/04/24 00:57:19;;;;;;;3.93;3.40;;;12.40;91.00;;;;;;5094891;28;20877;-55
2023/04/24 00:59:46;;;;;;;5.60;4.03;;;12.30;91.00;;;;;;5095168;28;20455;-55
2023/04/24 01:02:15;;;;;;;4.83;3.83;;;12.20;91.30;;;;;;5095176;28;20893;-54
2023/04/24 01:04:42;;;;;;;6.80;4.87;;;12.00;91.50;;;;;;5094980;28;20490;-55
2023/04/24 01:07:11;;;;;;;6.10;4.50;;;11.90;91.70;;;;;;5094969;28;20466;-54
2023/04/24 01:09:38;;;;;;;5.17;4.40;;;11.90;92.30;;;;;;5094974;28;20447;-55
2023/04/24 01:12:07;;;;;;;8.53;4.70;;;11.80;92.30;;;;;;5094821;28;20467;-55
2023/04/24 01:14:34;;;;;;;9.30;4.60;;;11.70;92.50;;;;;;5094387;28;20463;-55
2023/04/24 01:17:01;;;;;;;6.07;5.23;;;11.70;92.60;;;;;;5093953;28;20953;-55
2023/04/24 01:19:28;;;;;;;7.03;5.37;;;11.60;93.00;;;;;;5094524;28;20464;-55
2023/04/24 01:21:58;;;;;;;7.97;7.17;;;11.60;93.30;;;;;;5094717;28;20493;-55
2023/04/24 01:24:26;;;;;;;6.90;6.10;;;11.60;93.20;;;;;;5094512;28;20483;-55
2023/04/24 01:26:53;;;;;;;7.03;6.00;;;11.70;93.30;;;;;;5094685;28;20526;-55
2023/04/24 01:29:19;;;;;;;8.00;5.67;;;11.60;93.40;;;;;;5094345;28;20448;-55
2023/04/24 01:31:46;;;;;;;9.37;6.90;;;11.60;93.60;;;;;;5094481;28;20443;-55
2023/04/24 01:34:14;;;;;;;8.23;7.43;;;11.60;93.40;;;;;;5094399;28;20467;-55
2023/04/24 01:36:42;;;;;;;8.30;7.37;;;11.60;93.80;;;;;;5094388;28;20451;-54
2023/04/24 01:39:09;;;;;;;8.70;7.90;;;11.60;93.80;;;;;;5094139;28;20952;-54
2023/04/24 01:41:37;;;;;;;7.70;7.00;;;11.60;93.70;;;;;;5094486;28;20450;-54
2023/04/24 01:44:03;;;;;;;12.43;8.30;;;11.50;94.10;;;;;;5093836;28;20984;-55
2023/04/24 01:46:31;;;;;;;10.93;8.20;;;11.40;94.40;;;;;;5094277;28;20501;-54
2023/04/24 01:49:00;;;;;;;8.90;8.00;;;11.40;94.90;;;;;;5093861;28;20456;-56
2023/04/24 01:51:27;;;;;;;9.47;8.10;;;11.50;94.60;;;;;;5093935;28;20459;-55
2023/04/24 01:53:54;;;;;;;9.07;8.10;;;11.50;94.70;;;;;;5094085;28;20489;-55
2023/04/24 01:56:22;;;;;;;10.67;8.50;;;11.40;94.80;;;;;;5094026;28;20493;-55
2023/04/24 01:58:51;;;;;;;9.90;7.80;;;11.50;94.80;;;;;;5094041;28;20450;-55
2023/04/24 02:01:19;;;;;;;12.37;8.37;;;11.60;94.80;;;;;;5094080;28;20444;-55
2023/04/24 02:03:46;;;;;;;13.10;9.03;;;11.60;94.70;;;;;;5093850;28;20470;-55
2023/04/24 02:06:13;;;;;;;12.53;8.57;;;11.70;94.70;;;;;;5093939;28;20448;-55
2023/04/24 02:08:40;;;;;;;13.33;9.23;;;11.80;94.60;;;;;;5093510;28;20872;-55
2023/04/24 02:11:06;;;;;;;9.60;8.33;;;11.70;94.50;;;;;;5093878;28;20455;-55
2023/04/24 02:13:33;;;;;;;10.13;8.07;;;11.80;94.50;;;;;;5093687;28;20463;-54
2023/04/24 02:16:01;;;;;;;11.37;8.50;;;11.90;94.20;;;;;;5093760;28;20443;-55
2023/04/24 02:18:28;;;;;;;15.00;9.50;;;11.90;94.30;;;;;;5093393;28;20467;-55
2023/04/24 02:20:54;;;;;;;11.33;9.20;;;11.90;94.20;;;;;;5093388;28;20940;-55
2023/04/24 02:23:21;;;;;;;10.77;8.97;;;11.90;94.10;;;;;;5093526;28;20475;-55
2023/04/24 02:25:48;;;;;;;14.90;10.47;;;11.90;94.20;;;;;;5093569;28;20506;-55
2023/04/24 02:28:15;;;;;;;15.73;9.80;;;11.80;94.10;;;;;;5093343;28;20452;-55
2023/04/24 02:30:42;;;;;;;12.20;9.90;;;11.80;94.00;;;;;;5094374;28;20451;-55
2023/04/24 02:33:09;;;;;;;12.23;10.27;;;11.80;94.20;;;;;;5093491;28;20485;-55
2023/04/24 02:35:36;;;;;;;10.13;8.93;;;11.80;94.10;;;;;;5093228;28;20937;-55
2023/04/24 02:38:03;;;;;;;11.30;9.50;;;11.80;94.40;;;;;;5093176;28;21010;-55
2023/04/24 02:40:30;;;;;;;11.20;9.50;;;11.80;94.30;;;;;;5093154;28;20455;-55
2023/04/24 02:42:57;;;;;;;17.90;10.10;;;11.80;94.20;;;;;;5093345;28;20443;-54
2023/04/24 02:45:24;;;;;;;14.33;8.90;;;11.80;94.40;;;;;;5093337;28;20483;-55
2023/04/24 02:47:50;;;;;;;16.10;11.73;;;11.70;94.30;;;;;;5093440;28;20447;-55
2023/04/24 02:50:18;;;;;;;13.13;8.80;;;11.80;94.30;;;;;;5093118;28;20454;-55
2023/04/24 02:52:45;;;;;;;14.43;8.57;;;11.70;94.20;;;;;;5093397;28;20451;-56
2023/04/24 02:55:12;;;;;;;9.60;8.60;;;11.80;94.20;;;;;;5093346;28;20440;-56
2023/04/24 02:57:39;;;;;;;11.97;9.43;;;11.80;94.10;;;;;;5094742;28;20814;-55
2023/04/24 03:00:09;;;;;;;11.20;8.77;;;11.80;94.20;;;;;;5094433;28;20884;-56
2023/04/24 03:02:35;;;;;;;13.73;9.80;;;11.90;94.10;;;;;;5094031;28;20447;-55
2023/04/24 03:05:03;;;;;;;15.23;8.83;;;11.90;94.10;;;;;;5094063;28;20545;-55
2023/04/24 03:07:32;;;;;;;11.07;8.70;;;11.80;94.20;;;;;;5093435;28;20444;-55
2023/04/24 03:09:59;;;;;;;17.50;8.70;;;11.80;94.20;;;;;;5093406;28;20796;-55
2023/04/24 03:12:25;;;;;;;10.00;9.00;;;11.80;94.20;;;;;;5093908;28;20448;-55
2023/04/24 03:14:52;;;;;;;10.33;8.60;;;11.80;94.20;;;;;;5093198;28;20463;-55
2023/04/24 03:17:19;;;;;;;10.40;8.73;;;11.80;94.20;;;;;;5093257;28;20852;-55
2023/04/24 03:19:45;;;;;;;12.90;9.63;;;11.80;94.70;;;;;;5093226;28;20434;-56
2023/04/24 03:22:12;;;;;;;10.63;9.53;;;11.80;94.40;;;;;;5093337;28;20443;-55
2023/04/24 03:24:41;;;;;;;11.53;9.03;;;11.80;94.20;;;;;;5093100;28;20483;-56
2023/04/24 03:27:07;;;;;;;9.73;8.73;;;11.90;94.10;;;;;;5093085;28;20534;-55
2023/04/24 03:29:34;;;;;;;17.37;9.60;;;11.90;94.10;;;;;;5093132;28;20448;-55
2023/04/24 03:32:01;;;;;;;10.67;9.47;;;11.90;94.20;;;;;;5092979;28;20813;-55
2023/04/24 03:34:27;;;;;;;14.00;9.40;;;11.90;94.30;;;;;;5093034;28;20502;-55
2023/04/24 03:36:54;;;;;;;15.83;9.87;;;11.80;94.10;;;;;;5093269;28;20554;-55
2023/04/24 03:39:21;;;;;;;10.67;9.47;;;11.80;94.20;;;;;;5094924;28;20451;-55
2023/04/24 03:41:49;;;;;;;12.50;9.23;;;11.80;94.20;;;;;;5096754;28;20455;-55
2023/04/24 03:44:15;;;;;;;11.70;9.57;;;11.80;94.20;;;;;;5096607;28;20570;-56
2023/04/24 03:46:42;;;;;;;13.60;9.93;;;11.80;94.30;;;;;;5096680;28;20443;-55
2023/04/24 03:49:09;;;;;;;17.57;9.70;;;11.80;94.20;;;;;;5096549;28;20456;-55
2023/04/24 03:51:36;;;;;;;14.47;9.80;;;11.70;94.10;;;;;;5096562;28;20444;-56
2023/04/24 03:54:03;;;;;;;10.87;9.27;;;11.70;94.10;;;;;;5096124;28;20996;-55
2023/04/24 03:56:30;;;;;;;10.33;9.17;;;11.70;94.40;;;;;;5096454;28;20525;-55
2023/04/24 03:58:58;;;;;;;12.33;9.30;;;11.70;94.70;;;;;;5096301;28;20448;-55
2023/04/24 04:01:25;;;;;;;10.80;9.03;;;11.70;94.90;;;;;;5095968;28;20451;-55
2023/04/24 04:03:51;;;;;;;15.07;9.70;;;11.70;94.80;;;;;;5096021;28;20980;-55
2023/04/24 04:06:19;;;;;;;9.37;8.10;;;11.70;94.90;;;;;;5095901;28;21016;-55
2023/04/24 04:08:45;;;;;;;11.70;8.57;;;11.70;95.00;;;;;;5096175;28;20497;-55
2023/04/24 04:11:12;;;;;;;10.17;8.00;;;11.70;95.20;;;;;;5095901;28;20859;-55
2023/04/24 04:13:39;;;;;;;9.10;7.53;;;11.70;95.10;;;;;;5096163;28;20984;-55
2023/04/24 04:16:09;;;;;;;13.40;9.10;;;11.70;95.10;;;;;;5096121;28;20467;-55
2023/04/24 04:18:36;;;;;;;8.20;7.30;;;11.70;94.90;;;;;;5096078;28;20463;-55
2023/04/24 04:21:02;;;;;;;9.47;8.40;;;11.70;94.60;;;;;;5096106;28;20452;-56
2023/04/24 04:23:29;;;;;;;11.33;7.87;;;11.60;94.60;;;;;;5095812;28;20543;-55
2023/04/24 04:25:56;;;;;;;8.73;7.90;;;11.70;94.80;;;;;;5095433;28;21091;-56
2023/04/24 04:28:24;;;;;;;8.90;7.70;;;11.60;94.70;;;;;;5095771;28;20814;-55
2023/04/24 04:30:53;;;;;;;10.00;7.63;;;11.60;94.70;;;;;;5095761;28;20456;-55
2023/04/24 04:33:21;;;;;;;9.20;7.70;;;11.70;94.90;;;;;;5095231;28;20504;-56
2023/04/24 04:35:49;;;;;;;10.37;9.30;;;11.70;95.00;;;;;;5095622;28;20524;-55
2023/04/24 04:38:16;;;;;;;9.17;7.80;;;11.70;94.90;;;;;;5095299;28;20949;-55
2023/04/24 04:40:43;;;;;;;10.27;7.80;;;11.70;94.70;;;;;;5095252;28;20945;-55
2023/04/24 04:43:10;;;;;;;7.03;6.30;;;11.70;94.20;;;;;;5095417;28;20886;-56
2023/04/24 04:45:38;;;;;;;9.00;7.47;;;11.60;94.60;;;;;;5095330;28;20479;-55
2023/04/24 04:48:07;;;;;;;9.50;6.70;;;11.50;94.50;;;;;;5095493;28;20475;-55
2023/04/24 04:50:35;;;;;;;9.57;7.13;;;11.50;94.70;;;;;;5095010;28;20451;-55
2023/04/24 04:53:02;;;;;;;7.37;6.67;;;11.60;94.80;;;;;;5095276;28;20466;-56
2023/04/24 04:55:28;;;;;;;9.30;7.10;;;11.60;94.50;;;;;;5094869;28;20447;-55
2023/04/24 04:57:55;;;;;;;12.13;6.97;;;11.50;94.20;;;;;;5094873;28;20831;-55
2023/04/24 05:00:24;;;;;;;8.23;7.40;;;11.50;94.60;;;;;;5095151;28;20447;-55
2023/04/24 05:02:51;;;;;;;7.90;7.10;;;11.40;94.70;;;;;;5094964;28;20497;-56
2023/04/24 05:05:17;;;;;;;7.93;7.13;;;11.40;95.30;;;;;;5095068;28;20537;-55
2023/04/24 05:07:46;;;;;;;7.10;6.40;;;11.30;95.50;;;;;;5094980;28;20518;-55
2023/04/24 05:10:12;;;;;;;7.47;6.67;;;11.30;95.80;;;;;;5094991;28;20452;-55
2023/04/24 05:12:39;;;;;;;8.90;7.40;;;11.30;96.00;;;;;;5094792;28;20448;-55
2023/04/24 05:15:07;;;;;;;8.03;7.17;;;11.30;96.50;;;;;;5094593;28;20819;-54
2023/04/24 05:17:34;;;;;;;7.53;6.70;;;11.20;96.60;;;;;;5094620;28;20459;-53
2023/04/24 05:20:00;;;;;;;7.53;6.70;;;11.20;97.10;;;;;;5094793;28;20435;-53
2023/04/24 05:22:27;;;;;;;9.03;7.53;;;11.10;97.30;;;;;;5094655;28;20440;-53
2023/04/24 05:24:55;;;;;;;9.17;7.10;;;11.10;97.90;;;;;;5094565;28;20841;-54
2023/04/24 05:27:22;;;;;;;9.60;7.97;;;11.20;97.90;;;;;;5094825;28;20496;-55
2023/04/24 05:29:49;;;;;;;9.03;7.30;;;11.10;98.30;;;;;;5094055;28;20973;-55
2023/04/24 05:32:15;;;;;;;10.40;7.50;;;11.20;98.40;;;;;;5094468;28;20470;-54
2023/04/24 05:34:42;;;;;;;7.50;6.70;;;11.20;98.30;;;;;;5094483;28;20494;-55
2023/04/24 05:37:09;;;;;;;7.33;6.47;;;11.20;98.20;;;;;;5094418;28;20444;-55
2023/04/24 05:39:36;;;;;;;7.40;6.70;;;11.10;98.00;;;;;;5094072;28;20801;-55
2023/04/24 05:42:05;;;;;;;8.00;6.83;;;11.20;98.00;;;;;;5094942;28;20788;-55
2023/04/24 05:44:31;;;;;;;6.90;6.20;;;11.20;97.50;;;;;;5095583;28;20521;-55
2023/04/24 05:47:00;;;;;;;7.47;6.63;;;11.20;97.60;;;;;;5095053;28;20857;-55
2023/04/24 05:49:27;;;;;;;8.07;6.90;;;11.10;97.90;;;;;;5094308;28;20454;-55
2023/04/24 05:51:53;;;;;;;6.80;6.10;;;11.20;98.10;;;;;;5094218;28;20444;-55
2023/04/24 05:54:20;;;;;;;11.17;5.63;;;11.20;98.00;;;;;;5094125;28;20460;-54
2023/04/24 05:56:47;;;;;;;5.60;5.10;;;11.20;97.90;;;;;;5094068;28;20440;-54
2023/04/24 05:59:15;;;;;;;8.20;5.17;;;11.20;97.90;;;;;;5094120;28;20483;-55
2023/04/24 06:01:42;;;;;;;5.73;5.17;;;11.20;97.80;;;;;;5093672;28;20448;-54
2023/04/24 06:04:08;;;;;;;5.93;5.33;;;11.20;97.80;;;;;;5094501;28;20471;-54
2023/04/24 06:06:36;;;;;;;6.37;5.33;;;11.20;98.30;;;;;;5095746;28;20479;-54
2023/04/24 06:09:03;;;;;;;5.03;4.53;;;11.10;98.50;;;;;;5094977;28;20448;-54
2023/04/24 06:11:30;;;;;;;5.70;5.20;;;11.10;98.90;;;;;;5094792;28;20483;-54
2023/04/24 06:13:57;;;;;;;5.40;4.90;;;11.10;99.00;;;;;;5094228;28;20824;-54
2023/04/24 06:16:25;;;;;;;6.03;4.97;;;11.10;99.20;;;;;;5094149;28;20447;-54
2023/04/24 06:18:51;;;;;;;6.27;4.83;;;11.00;99.70;;;;;;5093792;28;20460;-54
2023/04/24 06:21:18;;;;;;;5.23;4.83;;;11.00;99.90;;;;;;5093896;28;20444;-54
2023/04/24 06:23:46;;;;;;;6.00;4.57;;;11.10;99.90;;;;;;5093478;28;20928;-54
2023/04/24 06:26:13;;;;;;;6.97;4.67;;;11.00;99.90;;;;;;5093678;28;20479;-54
2023/04/24 06:28:39;;;;;;;6.90;5.13;;;11.00;99.90;;;;;;5093411;28;20447;-54
2023/04/24 06:31:06;;;;;;;8.23;5.33;;;11.00;99.90;;;;;;5093384;28;20948;-54
2023/04/24 06:33:34;;;;;;;6.73;4.57;;;10.90;99.90;;;;;;5093567;28;20822;-54
2023/04/24 06:36:01;;;;;;;5.03;4.63;;;11.00;99.90;;;;;;5093323;28;20947;-54
2023/04/24 06:38:29;;;;;;;5.80;4.90;;;10.90;99.90;;;;;;5093526;28;20513;-54
2023/04/24 06:40:56;;;;;;;4.77;4.10;;;10.80;99.90;;;;;;5093514;28;20452;-54
2023/04/24 06:43:22;;;;;;;5.57;5.03;;;10.80;99.90;;;;;;5093371;28;20464;-55
2023/04/24 06:45:49;;;;;;;4.40;4.00;;;10.80;99.90;;;;;;5093378;28;20475;-55
2023/04/24 06:48:16;;;;;;;4.13;3.63;;;10.80;99.90;;;;;;5093572;28;20451;-55
2023/04/24 06:50:44;;;;;;;4.77;4.33;;;10.70;99.90;;;;;;5093397;28;20459;-54
2023/04/24 06:53:14;;;;;;;3.37;3.03;;;10.60;99.90;;;;;;5093402;28;20545;-55
2023/04/24 06:55:41;;;;;;;3.20;2.90;;;10.50;99.90;;;;;;5093005;28;20958;-54
2023/04/24 06:58:07;;;;;;;2.93;2.73;;;10.50;99.90;;;;;;5093345;28;20448;-54
2023/04/24 07:00:34;;;;;;;8.03;3.43;;;10.40;99.90;;;;;;5093019;28;20975;-54
2023/04/24 07:03:01;;;;;;;3.33;3.07;;;10.40;99.90;;;;;;5092953;28;20985;-54
2023/04/24 07:05:28;;;;;;;3.20;2.90;;;10.30;99.90;;;;;;5093257;28;20443;-54
2023/04/24 07:07:58;;;;;;;2.87;2.37;;;10.30;99.90;;;;;;5093247;28;20443;-54
2023/04/24 07:10:26;;;;;;;2.27;2.07;;;10.20;99.90;;;;;;5094317;28;20439;-54
2023/04/24 07:12:53;;;;;;;2.50;1.73;;;10.20;99.90;;;;;;5093281;28;20452;-54
2023/04/24 07:15:20;;;;;;;3.60;2.50;;;10.20;99.90;;;;;;5096993;28;20451;-54
2023/04/24 07:17:47;;;;;;;2.63;2.10;;;10.20;99.90;;;;;;5097027;28;20451;-54
2023/04/24 07:20:15;;;;;;;2.57;2.10;;;10.20;99.90;;;;;;5097161;28;20467;-54
2023/04/24 07:22:42;;;;;;;2.20;2.10;;;10.10;99.90;;;;;;5096998;28;20453;-54
2023/04/24 07:25:11;;;;;;;1.60;1.50;;;10.10;99.90;;;;;;5103930;28;20454;-53
2023/04/24 07:27:38;;;;;;;1.60;1.50;;;9.90;99.90;;;;;;5116760;28;20477;-54
2023/04/24 07:30:06;;;;;;;1.00;0.90;;;9.80;99.90;;;;;;5116655;28;20446;-54
2023/04/24 07:32:33;;;;;;;1.10;0.73;;;9.60;99.90;;;;;;5116904;28;20439;-54
2023/04/24 07:35:00;;;;;;;5.03;0.70;;;9.40;99.90;;;;;;5116967;28;20466;-54
2023/04/24 07:37:26;;;;;;;0.60;0.50;;;9.30;99.90;;;;;;5115058;28;20443;-53
2023/04/24 07:39:53;;;;;;;0.70;0.53;;;9.20;99.90;;;;;;5102380;28;20435;-54
2023/04/24 07:42:21;;;;;;;0.53;0.53;;;9.10;99.90;;;;;;5100752;28;20442;-53
2023/04/24 07:44:48;;;;;;;1.23;1.10;;;9.00;99.90;;;;;;5116649;28;20463;-54
2023/04/24 07:47:15;;;;;;;0.73;0.50;;;9.00;99.90;;;;;;5116611;27;21014;-54
2023/04/24 07:49:42;;;;;;;1.03;0.47;;;8.90;99.90;;;;;;5114204;28;20568;-53
2023/04/24 07:52:09;;;;;;;1.70;0.53;;;8.90;99.90;;;;;;5115555;28;20787;-53
2023/04/24 07:54:36;;;;;;;0.67;0.67;;;8.90;99.90;;;;;;5116335;28;20466;-54
2023/04/24 07:57:03;;;;;;;1.00;0.90;;;8.90;99.90;;;;;;5116750;28;20474;-54
2023/04/24 07:59:31;;;;;;;2.30;1.27;;;9.00;99.90;;;;;;5116342;28;20851;-54
2023/04/24 08:01:58;;;;;;;3.40;2.37;;;9.00;99.90;;;;;;5116883;28;20446;-53
2023/04/24 08:04:25;;;;;;;3.50;2.70;;;9.10;99.90;;;;;;5116554;28;20804;-54
2023/04/24 08:06:51;;;;;;;3.40;3.10;;;9.10;99.90;;;;;;5116487;28;20474;-54
2023/04/24 08:09:18;;;;;;;4.03;3.63;;;9.20;99.90;;;;;;5116549;28;20537;-54
2023/04/24 08:11:45;;;;;;;4.57;4.00;;;9.30;99.90;;;;;;5116425;28;20445;-53
2023/04/24 08:14:13;;;;;;;4.53;4.13;;;9.30;99.90;;;;;;5116307;28;20498;-53
2023/04/24 08:16:41;;;;;;;5.20;4.07;;;9.30;99.90;;;;;;5116024;28;20542;-53
2023/04/24 08:19:08;;;;;;;4.93;4.20;;;9.30;99.90;;;;;;5115941;28;20811;-54
2023/04/24 08:21:34;;;;;;;3.97;3.67;;;9.40;99.90;;;;;;5116291;28;20451;-54
2023/04/24 08:24:04;;;;;;;4.17;3.77;;;9.40;99.90;;;;;;5115802;28;20825;-53
2023/04/24 08:26:31;;;;;;;7.63;4.57;;;9.30;99.90;;;;;;5116090;28;20535;-53
2023/04/24 08:28:58;;;;;;;3.90;3.50;;;9.30;99.90;;;;;;5116141;28;20481;-53
2023/04/24 08:31:26;;;;;;;4.73;4.33;;;9.30;99.90;;;;;;5116638;28;20454;-53
2023/04/24 08:33:54;;;;;;;5.30;4.80;;;9.30;99.90;;;;;;5116120;28;20467;-53
2023/04/24 08:36:20;;;;;;;4.93;4.43;;;9.30;99.90;;;;;;5115985;28;20439;-53
2023/04/24 08:38:47;;;;;;;6.60;5.00;;;9.30;99.90;;;;;;5116031;28;20435;-53
2023/04/24 08:41:15;;;;;;;4.13;3.73;;;9.20;99.90;;;;;;5115547;28;20503;-53
2023/04/24 08:43:43;;;;;;;7.20;5.00;;;9.20;99.90;;;;;;5115824;28;20553;-53
2023/04/24 08:46:11;;;;;;;5.53;4.20;;;9.20;99.90;;;;;;5115772;28;20478;-54
2023/04/24 08:48:39;;;;;;;5.70;4.27;;;9.20;99.90;;;;;;5115851;28;20443;-53
2023/04/24 08:51:08;;;;;;;7.07;4.77;;;9.30;99.90;;;;;;5115733;28;20451;-53
2023/04/24 08:53:36;;;;;;;5.70;4.33;;;9.30;99.90;;;;;;5115607;28;20467;-54
2023/04/24 08:56:03;;;;;;;6.20;4.07;;;9.30;99.90;;;;;;5115607;28;20454;-55
2023/04/24 08:58:31;;;;;;;7.77;4.47;;;9.30;99.90;;;;;;5115622;28;20473;-54
2023/04/24 09:00:58;;;;;;;5.87;4.63;;;9.30;99.90;;;;;;5115422;28;20482;-54
2023/04/24 09:03:27;;;;;;;5.03;4.53;;;9.40;99.90;;;;;;5116267;28;20494;-54
2023/04/24 09:05:56;;;;;;;5.27;4.77;;;9.40;99.90;;;;;;5116230;28;20447;-54
2023/04/24 09:08:26;;;;;;;7.57;5.53;;;9.40;99.90;;;;;;5115618;28;20443;-54
2023/04/24 09:10:53;;;;;;;13.07;5.73;;;9.50;99.90;;;;;;5115481;28;20427;-54
2023/04/24 09:13:20;;;;;;;8.00;5.83;;;9.50;99.90;;;;;;5114857;28;20979;-54
2023/04/24 09:15:47;;;;;;;8.97;6.13;;;9.50;99.90;;;;;;5115228;28;20492;-54
2023/04/24 09:18:14;;;;;;;8.33;5.23;;;9.50;99.90;;;;;;5114990;28;20458;-55
2023/04/24 09:20:58;;;;;;;7.30;6.10;;;9.50;99.90;;;;;;5114805;28;20948;-54
2023/04/24 09:23:29;;;;;;;10.67;6.60;;;9.60;99.90;;;;;;5115109;28;20466;-54
2023/04/24 09:25:56;;;;;;;9.27;5.57;;;9.70;99.90;;;;;;5115131;28;20432;-54
2023/04/24 09:28:27;;;;;;;8.37;6.53;;;9.80;99.90;;;;;;5115021;28;20482;-54
2023/04/24 09:31:04;;;;;;;10.03;6.17;;;9.90;99.90;;;;;;5115001;28;20523;-54
2023/04/24 09:33:31;;;;;;;7.80;7.10;;;9.90;99.90;;;;;;5115408;28;20466;-54
2023/04/24 09:35:58;;;;;;;11.50;7.30;;;10.00;99.90;;;;;;5114146;28;20446;-54
2023/04/24 09:38:34;;;;;;;9.93;7.90;;;10.00;99.90;;;;;;5114857;28;20538;-54
2023/04/24 09:41:03;;;;;;;11.60;9.10;;;10.10;99.90;;;;;;5114842;28;20492;-55
2023/04/24 09:43:30;;;;;;;9.20;7.13;;;10.20;99.90;;;;;;5114675;28;20475;-55
2023/04/24 09:45:58;;;;;;;8.40;6.33;;;10.30;99.90;;;;;;5114635;28;20526;-55
2023/04/24 09:48:32;;;;;;;11.37;6.30;;;10.30;99.90;;;;;;5114077;28;20478;-54
2023/04/24 09:50:58;;;;;;;9.03;5.67;;;10.30;99.90;;;;;;5114608;28;20475;-54
2023/04/24 09:53:26;;;;;;;8.77;5.90;;;10.40;99.90;;;;;;5114432;28;20467;-54
2023/04/24 09:55:54;;;;;;;11.10;6.20;;;10.50;99.90;;;;;;5114550;28;20502;-55
2023/04/24 09:58:26;;;;;;;12.17;5.67;;;10.60;99.90;;;;;;5114131;28;20999;-55
2023/04/24 10:00:56;;;;;;;7.33;5.90;;;10.60;99.90;;;;;;5114430;28;20496;-55
2023/04/24 10:03:25;;;;;;;9.30;5.60;;;10.60;99.90;;;;;;5114414;28;20470;-55
2023/04/24 10:05:53;;;;;;;8.00;5.20;;;10.80;99.90;;;;;;5113997;28;20822;-55
2023/04/24 10:08:21;;;;;;;8.83;5.97;;;11.00;99.90;;;;;;5113873;28;21007;-55
2023/04/24 10:10:48;;;;;;;7.10;6.00;;;11.10;99.90;;;;;;5114280;28;20450;-55
2023/04/24 10:13:16;;;;;;;10.23;4.40;;;11.20;99.90;;;;;;5114112;28;20516;-55
2023/04/24 10:15:43;;;;;;;6.10;4.70;;;11.20;99.90;;;;;;5113882;28;20959;-55
2023/04/24 10:18:11;;;;;;;11.57;4.90;;;11.10;99.90;;;;;;5113966;28;20482;-55
2023/04/24 10:20:39;;;;;;;7.70;4.40;;;10.90;99.90;;;;;;5114070;28;20451;-55
2023/04/24 10:23:06;;;;;;;6.23;4.70;;;10.90;99.90;;;;;;5114138;28;20458;-55
2023/04/24 10:25:35;;;;;;;6.23;4.37;;;10.80;99.90;;;;;;5114133;28;20450;-55
2023/04/24 10:28:03;;;;;;;8.83;4.30;;;10.80;99.90;;;;;;5114118;28;20475;-55
2023/04/24 10:30:34;;;;;;;8.47;4.30;;;10.80;99.90;;;;;;5113724;28;20863;-55
2023/04/24 10:33:01;;;;;;;8.73;3.80;;;10.70;99.90;;;;;;5114063;28;20594;-55
2023/04/24 10:35:31;;;;;;;7.23;4.00;;;10.60;99.90;;;;;;5113929;28;20491;-55
2023/04/24 10:38:03;;;;;;;8.73;4.00;;;10.70;99.90;;;;;;5113940;28;20434;-55
2023/04/24 10:40:33;;;;;;;6.00;3.63;;;10.70;99.90;;;;;;5114731;28;20423;-55
2023/04/24 10:43:00;;;;;;;6.87;4.10;;;10.70;99.90;;;;;;5113968;28;20520;-55
2023/04/24 10:45:27;;;;;;;8.17;3.77;;;10.60;99.90;;;;;;5113745;28;20450;-55
2023/04/24 10:47:59;;;;;;;9.37;4.30;;;10.60;99.90;;;;;;5116369;28;20482;-55
2023/04/24 10:50:27;;;;;;;7.63;3.63;;;10.60;99.90;;;;;;5120753;28;20427;-55
2023/04/24 10:52:55;;;;;;;9.40;3.93;;;10.70;99.90;;;;;;5120467;28;20447;-55
2023/04/24 10:55:42;;;;;;;8.60;4.23;;;10.90;99.90;;;;;;5120545;28;20500;-55
2023/04/24 10:58:09;;;;;;;9.37;3.67;;;10.90;99.90;;;;;;5120527;28;20491;-55
2023/04/24 11:00:38;;;;;;;13.03;3.83;;;11.00;99.90;;;;;;5120470;28;20454;-55
2023/04/24 11:03:07;;;;;;;9.73;3.70;;;11.20;99.90;;;;;;5120394;27;20494;-55
2023/04/24 11:05:51;;;;;;;9.13;3.90;;;11.50;99.90;;;;;;5120482;28;20473;-55
2023/04/24 11:08:27;;;;;;;7.10;3.63;;;12.00;99.90;;;;;;5120357;27;20498;-56
2023/04/24 11:11:12;;;;;;;6.63;4.17;;;12.50;99.90;;;;;;5120161;28;20927;-55
2023/04/24 11:14:10;;;;;;;7.00;3.47;;;13.30;98.80;;;;;;5120329;27;20462;-55
2023/04/24 11:16:44;;;;;;;6.43;3.43;;;14.60;96.80;;;;;;5120306;28;20446;-55
2023/04/24 11:19:24;;;;;;;6.33;4.00;;;15.10;93.90;;;;;;5119930;28;20465;-55
2023/04/24 11:21:57;;;;;;;6.93;3.87;;;15.20;92.70;;;;;;5120414;27;20458;-55
2023/04/24 11:24:39;;;;;;;8.97;3.50;;;15.20;92.20;;;;;;5119944;28;20980;-56
2023/04/24 11:27:13;;;;;;;5.80;3.30;;;15.60;92.20;;;;;;5120258;28;20543;-55
2023/04/24 11:29:45;;;;;;;6.73;3.80;;;15.50;90.80;;;;;;5120384;27;20430;-56
2023/04/24 11:32:20;;;;;;;10.63;3.90;;;15.00;90.00;;;;;;5120587;28;20482;-56
2023/04/24 11:34:49;;;;;;;10.33;3.57;;;14.40;91.40;;;;;;5120044;28;20865;-55
2023/04/24 11:37:16;;;;;;;6.50;4.07;;;13.80;91.50;;;;;;5120159;28;20495;-55
2023/04/24 11:39:43;;;;;;;8.13;3.90;;;13.50;92.20;;;;;;5120150;28;20457;-56
2023/04/24 11:42:10;;;;;;;9.53;3.33;;;13.00;92.60;;;;;;5120067;28;20453;-55
2023/04/24 11:44:37;;;;;;;6.20;3.50;;;12.60;92.70;;;;;;5120009;28;20466;-56
2023/04/24 11:47:05;;;;;;;5.93;3.23;;;12.40;94.00;;;;;;5119998;27;20446;-55
2023/04/24 11:49:32;;;;;;;7.50;3.17;;;12.40;94.30;;;;;;5119723;28;20962;-55
2023/04/24 11:52:01;;;;;;;11.63;3.73;;;12.40;93.70;;;;;;5119998;28;20442;-55
2023/04/24 11:54:28;;;;;;;8.53;3.00;;;12.40;94.60;;;;;;5119958;27;20907;-56
2023/04/24 11:56:55;;;;;;;12.03;3.20;;;12.40;93.30;;;;;;5120358;28;20806;-55
2023/04/24 11:59:22;;;;;;;7.30;2.90;;;12.30;93.20;;;;;;5119116;27;20451;-56
2023/04/24 12:01:49;;;;;;;8.50;3.13;;;12.40;93.40;;;;;;5117521;28;20457;-56
2023/04/24 12:04:18;;;;;;;4.90;2.73;;;12.50;93.30;;;;;;5116756;28;20922;-56
2023/04/24 12:09:46;;;;;;;7.93;2.63;;;12.70;92.40;;;;;;5091720;27;20572;-56
2023/04/24 12:12:13;;;;;;;7.87;2.33;;;13.20;91.20;;;;;;5090590;28;20505;-56
2023/04/24 12:14:49;;;;;;;7.90;2.70;;;13.60;89.80;;;;;;5090769;28;20582;-56
2023/04/24 12:17:16;;;;;;;4.53;2.90;;;13.80;89.80;;;;;;5090425;28;20432;-56
2023/04/24 12:19:47;;;;;;;5.63;2.20;;;13.80;88.30;;;;;;5090714;28;20448;-56
2023/04/24 12:22:14;;;;;;;6.20;2.73;;;13.80;86.70;;;;;;5090758;28;20444;-57
2023/04/24 12:24:58;;;;;;;8.10;3.07;;;13.60;86.20;;;;;;5090571;28;20475;-57
2023/04/24 12:27:25;;;;;;;5.30;2.60;;;13.60;88.00;;;;;;5090762;28;20503;-57
2023/04/24 12:29:56;;;;;;;6.33;2.90;;;13.70;89.40;;;;;;5090599;28;20447;-57
2023/04/24 12:32:23;;;;;;;4.50;2.57;;;13.80;89.30;;;;;;5090271;28;20857;-57
2023/04/24 12:34:51;;;;;;;3.97;2.80;;;14.30;87.60;;;;;;5090636;28;20471;-57
2023/04/24 12:37:17;;;;;;;4.80;2.30;;;15.10;81.50;;;;;;5091234;28;20488;-57
2023/04/24 12:40:00;;;;;;;4.63;2.30;;;15.80;75.30;;;;;;5090462;28;20455;-56
2023/04/24 12:42:28;;;;;;;4.20;2.60;;;15.80;72.90;;;;;;5090455;28;20462;-57
2023/04/24 12:44:58;;;;;;;5.57;2.70;;;15.30;73.60;;;;;;5090330;28;20471;-57
2023/04/24 12:47:25;;;;;;;5.93;3.03;;;14.80;75.20;;;;;;5090358;28;20524;-57
2023/04/24 12:49:52;;;;;;;2.70;2.37;;;14.40;77.40;;;;;;5090264;28;20455;-57
2023/04/24 12:52:19;;;;;;;2.83;2.03;;;14.30;79.80;;;;;;5090219;28;20492;-57